^^

Meteo Aereoporti Centro-Italia

 

 
LIRZ - Perugia S.Egidio (208 m.)
Dati ricevuti: 03/03/2024 07:50
Poco nuvoloso
Poco nuvoloso
 Vento da N
Vento: N 7 km/h
TEMPERATURA: 7°C
Raffreddamento da Vento: 6°C
P.to di Rugiada: 7°C
Umidità: 100%
Pressione: 1010 hPa
Nuvole: Poco nuvoloso
Visibilità: 10 km
Dettagli Nuvole: Poco nuvoloso 1006 m
2024/03/03 06:50 LIRZ 030650Z AUTO 36004KT 9999 SCT033/// 07/07 Q1010
 
LIPY - Ancona Falconara (12 m.)
Dati ricevuti: 03/03/2024 07:50
Qualche nuvola
Qualche nuvola
 Vento da SSW
Vento: SSW 6 km/h
TEMPERATURA: 7°C
P.to di Rugiada: 5°C
Umidità: 87%
Pressione: 1010 hPa
Nuvole: Qualche nuvola
Visibilità: 10 km
Dettagli Nuvole: Qualche nuvola 7315 m
2024/03/03 06:50 LIPY 030650Z AUTO 21003KT 9999 FEW240/// 07/05 Q1010
 
LIPR - Rimini Miramare (12 m.)
Dati ricevuti: 03/03/2024 07:50
Sereno
Sereno
 Vento da S
Vento: S 11 km/h
TEMPERATURA: 11°C
P.to di Rugiada: 5°C
Umidità: 67%
Pressione: 1009 hPa
Condizioni generali: Sereno
Visibilità: oltre 10 km
2024/03/03 06:50 LIPR 030650Z 19006KT CAVOK 11/05 Q1009
 
LIRF - Roma Fiumicino (2 m.)
Dati ricevuti: 03/03/2024 07:50
Poco nuvoloso
Poco nuvoloso
 Vento da ESE
Vento: ESE 19 km/h
TEMPERATURA: 12°C
P.to di Rugiada: 9°C
Umidità: 82%
Pressione: 1010 hPa
Nuvole: Poco nuvoloso
Visibilità: 10 km
Dettagli Nuvole: Qualche nuvola 457 m
Poco nuvoloso 1219 m
2024/03/03 06:50 LIRF 030650Z 12010KT 9999 FEW015 SCT040 12/09 Q1010 NOSIG
 
LIRA - Roma Ciampino (129 m.)
Dati ricevuti: 03/03/2024 07:50
Poco nuvoloso
Poco nuvoloso
 Vento da SE
Vento: SE 24 km/h
TEMPERATURA: 12°C
P.to di Rugiada: 7°C
Umidità: 72%
Pressione: 1011 hPa
Nuvole: Poco nuvoloso
Visibilità: 10 km
Dettagli Nuvole: Poco nuvoloso 1067 m
2024/03/03 06:50 LIRA 030650Z 14013KT 9999 SCT035 12/07 Q1011
 
LIRU - Roma Urbe (17 m.)
Dati ricevuti: 03/03/2024 07:50
Molto nuvoloso
Molto nuvoloso
 Vento da direzione variabile
Vento: direzione variabile 4 km/h
TEMPERATURA: 7°C
P.to di Rugiada: 6°C
Umidità: 93%
Pressione: 1011 hPa
Nuvole: Molto nuvoloso
Visibilità: 10 km
Dettagli Nuvole: Molto nuvoloso 914 m
2024/03/03 06:50 LIRU 030650Z VRB02KT 9999 BKN030 07/06 Q1011
 
LIVF - Frontone (570 m.)
Dati ricevuti: 03/03/2024 07:55
Poco nuvoloso
Poco nuvoloso
 Vento da SSW
Vento: SSW 9 km/h
TEMPERATURA: 8°C
Raffreddamento da Vento: 6°C
P.to di Rugiada: 2°C
Umidità: 66%
Pressione: 1008 hPa
Nuvole: Poco nuvoloso
Visibilità: 10 km
Dettagli Nuvole: Poco nuvoloso 914 m
2024/03/03 06:55 LIVF 030655Z 21005KT 9999 SCT030 08/02 Q1008
 
LIRQ - Firenze Peretola (40 m.)
Dati ricevuti: 03/03/2024 07:50
Poco nuvoloso
Poco nuvoloso
 Vento da E
Vento: E 9 km/h
TEMPERATURA: 7°C
Raffreddamento da Vento: 6°C
P.to di Rugiada: 7°C
Umidità: 100%
Pressione: 1009 hPa
Nuvole: Poco nuvoloso
Visibilità: 10 km
Dettagli Nuvole: Poco nuvoloso 2134 m
2024/03/03 06:50 LIRQ 030650Z 10005KT 9999 SCT070 07/07 Q1009
 
LIBP - Pescara (10 m.)
Dati ricevuti: 03/03/2024 07:50
Sereno
Sereno
 Vento da direzione variabile
Vento: direzione variabile 4 km/h
TEMPERATURA: 8°C
P.to di Rugiada: 8°C
Umidità: 100%
Pressione: 1011 hPa
Nuvole: Sereno
Visibilità: 10 km
2024/03/03 06:50 LIBP 030650Z AUTO VRB02KT 9999 NCD 08/08 Q1011
 
LIRV - Viterbo (300 m.)
Dati ricevuti: 03/03/2024 07:55
Poco nuvoloso
Poco nuvoloso
 Vento da S
Vento: S 20 km/h
TEMPERATURA: 10°C
Raffreddamento da Vento: 7°C
P.to di Rugiada: 7°C
Umidità: 82%
Pressione: 1010 hPa
Nuvole: Poco nuvoloso
Visibilità: 10 km
Dettagli Nuvole: Poco nuvoloso 457 m
2024/03/03 06:55 LIRV 030655Z 17011KT 9999 SCT015 10/07 Q1010
 
LIQN - Rieti (389 m.)
Dati ricevuti: 02/03/2024 17:50
Dati non aggiornati
Molto nuvoloso
Molto nuvoloso
 Vento da SSE
Vento: SSE 13 km/h
TEMPERATURA: 11°C
P.to di Rugiada: 7°C
Umidità: 77%
Pressione: 1012 hPa
Nuvole: Molto nuvoloso
Visibilità: 10 km
Dettagli Nuvole: Molto nuvoloso 1219 m
2024/03/02 16:50 LIQN 021650Z 15007KT 9999 BKN040 11/07 Q1012
 
LIRG - Guidonia -RM- (88 m.)
Dati ricevuti: 01/03/2024 18:55
Dati non aggiornati
Poco nuvoloso
Poco nuvoloso
 Vento da SE
Vento: SE 7 km/h
TEMPERATURA: 10°C
Raffreddamento da Vento: 9°C
P.to di Rugiada: 8°C
Umidità: 88%
Pressione: 1007 hPa
Nuvole: Poco nuvoloso
Visibilità: 10 km
Dettagli Nuvole: Poco nuvoloso 457 m
Poco nuvoloso 914 m
2024/03/01 17:55 LIRG 011755Z 13004KT 9999 SCT015 SCT030 10/08 Q1007
 
LIRK - Terminillo -RI-(1874 m.)
Dati ricevuti: 03/03/2024 07:55

 Vento da SSE
Vento: SSE 19 km/h
TEMPERATURA: -1°C
Raffreddamento da Vento: -7°C
P.to di Rugiada: -3°C
Umidità: 86%
Pressione: 1012 hPa
2024/03/03 06:55 LIRK 030655Z AUTO 15010KT 120V200 //// M01/M03 Q1012
 
LIPK - Forlì (27 m.)
Dati ricevuti: 02/03/2024 19:50
Dati non aggiornati
Sereno
Sereno
 Vento da direzione variabile
Vento: direzione variabile 4 km/h
TEMPERATURA: 11°C
P.to di Rugiada: 4°C
Umidità: 62%
Pressione: 1010 hPa
Condizioni generali: Sereno
Visibilità: oltre 10 km
2024/03/02 18:50 LIPK 021850Z VRB02KT CAVOK 11/04 Q1010
 
LIRS - Grosseto (5 m.)
Dati ricevuti: 03/03/2024 07:55
Poco nuvoloso
Poco nuvoloso
 Vento da SE
Vento: SE 13 km/h
TEMPERATURA: 12°C
P.to di Rugiada: 9°C
Umidità: 82%
Pressione: 1008 hPa
Nuvole: Poco nuvoloso
Visibilità: 10 km
Dettagli Nuvole: Qualche nuvola 396 m
Poco nuvoloso 610 m
2024/03/03 06:55 LIRS 030655Z 14007KT 9999 FEW013 SCT020 12/09 Q1008
 
LIRP - Pisa S.Giusto (2 m.)
Dati ricevuti: 03/03/2024 07:45
Poco nuvoloso
Poco nuvoloso
 Vento da E
Vento: E 19 km/h
TEMPERATURA: 11°C
P.to di Rugiada: 8°C
Umidità: 82%
Pressione: 1007 hPa
Nuvole: Poco nuvoloso
Visibilità: 10 km
Dettagli Nuvole: Poco nuvoloso 914 m
2024/03/03 06:45 LIRP 030645Z 09010KT 9999 SCT030 11/08 Q1007 NOSIG